Time;durP1;ratioP1;P1;durP2;ratioP2;P2;SDS_P1;SDS_P2;PMS_P1;PMS_P2;Temp;Humidity;BMP_temperature;BMP_pressure;BME280_temperature;BME280_humidity;BME280_pressure;Samples;Min_cycle;Max_cycle;Signal;HPM_P1;HPM_P2
2022/01/02 00:00:40;;;;;;;6.20;2.40;;;;;;;11.81;100.00;-19474.19;5052992;28;20024;-67
2022/01/02 00:03:07;;;;;;;4.70;2.30;;;;;;;11.64;100.00;-19469.97;5051650;28;20416;-67
2022/01/02 00:05:37;;;;;;;6.27;2.43;;;;;;;11.59;100.00;-19468.53;5051141;28;20028;-67
2022/01/02 00:08:04;;;;;;;8.33;2.90;;;;;;;11.53;100.00;-19467.09;5056187;28;20055;-67
2022/01/02 00:10:44;;;;;;;8.53;2.20;;;;;;;11.58;100.00;-19468.28;5051240;28;20028;-67
2022/01/02 00:13:16;;;;;;;5.70;2.20;;;;;;;11.55;100.00;-19467.63;5048321;28;20040;-67
2022/01/02 00:15:42;;;;;;;6.80;2.50;;;;;;;11.44;100.00;-19464.72;5048206;28;20407;-67
2022/01/02 00:18:12;;;;;;;6.33;2.27;;;;;;;11.42;100.00;-19464.19;5045110;28;20032;-67
2022/01/02 00:20:46;;;;;;;7.43;2.43;;;;;;;11.49;100.00;-19465.91;5053913;28;20028;-67
2022/01/02 00:23:18;;;;;;;4.53;1.97;;;;;;;11.41;100.00;-19463.94;5052962;28;20326;-67
2022/01/02 00:25:43;;;;;;;5.80;2.28;;;;;;;11.42;100.00;-19464.31;5051038;28;20032;-67
2022/01/02 00:28:11;;;;;;;4.87;2.43;;;;;;;11.37;100.00;-19463.00;5054585;28;20493;-67
2022/01/02 00:30:37;;;;;;;5.00;2.20;;;;;;;11.31;100.00;-19461.31;5057548;28;20141;-67
2022/01/02 00:33:03;;;;;;;7.43;2.60;;;;;;;11.40;100.00;-19463.66;5056848;28;20036;-67
2022/01/02 00:35:30;;;;;;;6.87;2.27;;;;;;;11.41;100.00;-19463.94;5048146;28;20028;-67
2022/01/02 00:37:55;;;;;;;6.77;2.13;;;;;;;11.28;100.00;-19460.50;5053715;28;20028;-67
2022/01/02 00:40:21;;;;;;;4.57;1.90;;;;;;;11.34;100.00;-19462.09;5049385;28;20277;-67
2022/01/02 00:42:57;;;;;;;5.43;2.47;;;;;;;11.34;100.00;-19462.09;5056739;28;20307;-67
2022/01/02 00:45:27;;;;;;;4.77;2.40;;;;;;;11.43;100.00;-19464.47;5057593;28;20226;-67
2022/01/02 00:48:10;;;;;;;6.60;2.27;;;;;;;11.33;100.00;-19461.81;5058039;28;20181;-67
2022/01/02 00:50:45;;;;;;;5.60;2.40;;;;;;;11.33;100.00;-19461.81;5053895;28;20347;-67
2022/01/02 00:53:13;;;;;;;6.53;2.43;;;;;;;11.33;100.00;-19461.81;5052825;28;20024;-67
2022/01/02 00:55:43;;;;;;;6.83;2.27;;;;;;;11.36;100.00;-19462.63;5047491;28;20036;-67
2022/01/02 00:58:16;;;;;;;5.10;2.17;;;;;;;11.32;100.00;-19461.56;5051376;28;20029;-67
2022/01/02 01:00:50;;;;;;;6.37;2.60;;;;;;;11.30;100.00;-19461.03;5049182;28;20029;-67
2022/01/02 01:03:29;;;;;;;6.13;2.40;;;;;;;11.39;100.00;-19463.41;5052134;28;20084;-67
2022/01/02 01:05:55;;;;;;;5.63;2.50;;;;;;;11.44;100.00;-19464.72;5054587;28;20659;-67
2022/01/02 01:08:23;;;;;;;7.80;2.43;;;;;;;11.48;100.00;-19465.78;5047228;28;20032;-67
2022/01/02 01:10:49;;;;;;;8.57;2.53;;;;;;;11.45;100.00;-19464.97;5044718;28;20051;-67
2022/01/02 01:13:15;;;;;;;5.20;2.40;;;;;;;11.33;100.00;-19461.97;5056533;28;20111;-67
2022/01/02 01:15:42;;;;;;;6.57;2.53;;;;;;;11.34;100.00;-19462.22;5058145;28;20025;-67
2022/01/02 01:18:10;;;;;;;6.97;2.40;;;;;;;11.24;100.00;-19459.47;5054881;28;20212;-67
2022/01/02 01:20:42;;;;;;;6.10;3.07;;;;;;;11.22;100.00;-19458.94;5047378;28;20245;-67
2022/01/02 01:23:16;;;;;;;9.60;3.17;;;;;;;11.15;100.00;-19457.22;5055213;28;20024;-67
2022/01/02 01:25:46;;;;;;;5.83;2.67;;;;;;;11.10;100.00;-19456.03;5054654;28;20384;-67
2022/01/02 01:28:13;;;;;;;6.70;2.83;;;;;;;11.09;100.00;-19455.66;5053568;28;20033;-67
2022/01/02 01:30:39;;;;;;;8.20;3.17;;;;;;;11.09;100.00;-19455.66;5056800;28;20058;-67
2022/01/02 01:33:04;;;;;;;6.47;2.83;;;;;;;11.13;100.00;-19456.69;5048764;28;20059;-67
2022/01/02 01:35:30;;;;;;;7.83;2.50;;;;;;;11.15;100.00;-19457.38;5046975;28;20215;-67
2022/01/02 01:37:56;;;;;;;10.00;2.90;;;;;;;11.13;100.00;-19456.84;5053868;28;20392;-67
2022/01/02 01:40:22;;;;;;;6.37;2.93;;;;;;;11.09;100.00;-19455.78;5053469;28;20111;-67
2022/01/02 01:42:59;;;;;;;8.83;3.30;;;;;;;11.08;100.00;-19455.53;5055008;28;20373;-67
2022/01/02 01:48:02;;;;;;;8.13;3.27;;;;;;;11.03;100.00;-19454.22;5054535;28;20281;-67
2022/01/02 01:50:36;;;;;;;5.73;2.53;;;;;;;10.92;100.00;-19451.31;5048547;28;20027;-67
2022/01/02 01:53:02;;;;;;;7.23;2.90;;;;;;;10.81;100.00;-19448.41;5055290;28;20066;-67
2022/01/02 01:55:28;;;;;;;8.83;3.23;;;;;;;10.81;100.00;-19448.41;5049390;28;20086;-67
2022/01/02 01:57:56;;;;;;;7.93;2.60;;;;;;;10.74;100.00;-19446.72;5053368;28;20028;-67
2022/01/02 02:00:22;;;;;;;6.97;3.10;;;;;;;10.68;100.00;-19445.00;5052497;28;20171;-67
2022/01/02 02:02:48;;;;;;;7.90;3.10;;;;;;;10.62;100.00;-19443.41;5053770;28;20512;-66
2022/01/02 02:05:14;;;;;;;8.93;2.93;;;;;;;10.50;100.00;-8770.06;5056527;28;20035;-66
2022/01/02 02:07:44;;;;;;;5.67;2.90;;;;;;;10.49;100.00;13986.69;5048664;28;20023;-66
2022/01/02 02:10:17;;;;;;;11.03;3.43;;;;;;;10.49;100.00;31977.56;5053828;28;20147;-66
2022/01/02 02:12:46;;;;;;;7.07;3.10;;;;;;;10.46;100.00;39527.38;5054969;28;20053;-66
2022/01/02 02:15:16;;;;;;;6.40;2.60;;;;;;;10.37;100.00;58968.56;5051143;28;20047;-66
2022/01/02 02:17:44;;;;;;;8.13;3.50;;;;;;;10.31;100.00;66903.75;5044388;28;20404;-66
2022/01/02 02:20:20;;;;;;;7.90;3.27;;;;;;;10.35;100.00;76198.72;5053519;28;20146;-66
2022/01/02 02:22:49;;;;;;;7.83;3.30;;;;;;;10.36;100.00;78526.44;5045994;28;20040;-66
2022/01/02 02:25:16;;;;;;;8.70;3.50;;;;;;;10.31;100.00;82843.88;5047342;28;20178;-66
2022/01/02 02:28:02;;;;;;;7.77;3.13;;;;;;;10.36;100.00;87847.81;5054440;28;20059;-66
2022/01/02 02:30:32;;;;;;;8.17;3.27;;;;;;;10.34;100.00;90512.56;5050402;28;20090;-66
2022/01/02 02:33:00;;;;;;;7.97;3.37;;;;;;;10.34;100.00;91846.44;5051303;28;20526;-66
2022/01/02 02:35:27;;;;;;;9.30;3.60;;;;;;;10.29;100.00;96180.09;5055393;28;20083;-66
2022/01/02 02:37:54;;;;;;;10.63;3.17;;;;;;;10.30;100.00;98855.81;5053956;28;20042;-66
2022/01/02 02:40:21;;;;;;;7.50;3.43;;;;;;;10.33;100.00;101871.88;5045915;28;20032;-66
2022/01/02 02:42:52;;;;;;;8.80;3.50;;;;;;;10.33;100.00;102876.09;5054376;28;20436;-66
2022/01/02 02:51:06;;;;;;;10.13;3.40;;;;;;;10.33;100.00;110249.19;5045790;28;20040;-66
2022/01/02 02:53:38;;;;;;;9.00;3.13;;;;;;;10.32;100.00;110917.38;5052323;28;20025;-66
2022/01/02 02:56:14;;;;;;;10.10;3.67;;;;;;;10.35;100.00;113272.88;5045623;28;20111;-66
2022/01/02 02:58:41;;;;;;;7.50;3.60;;;;;;;10.35;100.00;114280.41;5033482;28;20469;-66
2022/01/02 03:01:08;;;;;;;8.27;3.37;;;;;;;10.32;100.00;115282.25;5049084;28;20028;-66
2022/01/02 03:03:33;;;;;;;7.07;3.20;;;;;;;10.30;100.00;115951.25;5049219;28;20433;-66
2022/01/02 03:05:59;;;;;;;7.87;3.23;;;;;;;10.19;100.00;118618.88;5044237;28;20037;-66
2022/01/02 03:08:28;;;;;;;7.63;3.40;;;;;;;10.27;100.00;121326.47;5053178;28;20103;-66
2022/01/02 03:10:53;;;;;;;9.43;3.50;;;;;;;10.25;100.00;121994.31;5050519;28;20589;-66
2022/01/02 03:13:19;;;;;;;9.83;3.40;;;;;;;10.22;100.00;123672.25;5055116;28;20024;-66
2022/01/02 03:15:46;;;;;;;10.00;3.10;;;;;;;10.27;100.00;124355.44;5053775;28;20028;-66
2022/01/02 03:18:12;;;;;;;9.20;3.40;;;;;;;10.23;100.00;123674.41;5053941;28;20169;-66
2022/01/02 03:20:37;;;;;;;9.27;3.10;;;;;;;10.20;100.00;124003.63;5049161;28;20167;-66
2022/01/02 03:23:03;;;;;;;11.00;2.90;;;;;;;10.28;100.00;125031.25;5055223;28;20071;-66
2022/01/02 03:25:28;;;;;;;7.07;3.40;;;;;;;10.20;100.00;124677.16;5053873;28;20051;-68
2022/01/02 03:27:54;;;;;;;9.97;3.90;;;;;;;10.22;100.00;125355.19;5057626;28;20360;-68
2022/01/02 03:30:19;;;;;;;8.33;3.03;;;;;;;10.29;100.00;125033.41;5056999;28;20020;-68
2022/01/02 03:32:44;;;;;;;10.60;3.40;;;;;;;10.22;100.00;124009.00;5050486;28;20127;-68
2022/01/02 03:35:10;;;;;;;9.33;3.20;;;;;;;10.25;100.00;124352.22;5046623;28;20045;-68
2022/01/02 03:37:35;;;;;;;8.90;3.47;;;;;;;10.23;100.00;124684.72;5057632;28;20295;-68
2022/01/02 03:40:07;;;;;;;11.30;3.63;;;;;;;10.24;100.00;124685.81;5049492;28;20029;-68
2022/01/02 03:42:34;;;;;;;14.02;5.05;;;;;;;10.23;100.00;124010.06;5053093;28;20390;-68
2022/01/02 03:44:59;;;;;;;8.07;3.30;;;;;;;10.28;100.00;123348.31;5054390;28;20250;-68
2022/01/02 03:47:25;;;;;;;9.50;3.17;;;;;;;10.25;100.00;122330.91;5052872;28;20576;-68
2022/01/02 03:49:51;;;;;;;8.00;3.57;;;;;;;10.24;100.00;122328.81;5056609;28;20021;-68
2022/01/02 03:52:16;;;;;;;9.13;3.33;;;;;;;10.28;100.00;122337.25;5051832;28;20031;-68
2022/01/02 03:54:42;;;;;;;10.23;3.37;;;;;;;10.22;100.00;121652.53;5057671;28;20409;-68
2022/01/02 03:57:11;;;;;;;10.37;3.40;;;;;;;10.17;100.00;122313.94;5051251;28;20576;-68
2022/01/02 03:59:36;;;;;;;7.47;3.37;;;;;;;10.20;100.00;122320.31;5052751;28;20035;-68
2022/01/02 04:02:02;;;;;;;9.97;3.20;;;;;;;10.23;100.00;121653.56;5049407;28;20032;-68
2022/01/02 04:04:28;;;;;;;9.70;3.53;;;;;;;10.23;100.00;119971.31;5055441;28;20420;-68
2022/01/02 04:06:54;;;;;;;10.20;3.63;;;;;;;10.28;100.00;118300.06;5051620;28;20028;-68
2022/01/02 04:09:19;;;;;;;6.67;2.83;;;;;;;10.31;100.00;117297.63;5054370;28;20417;-68
2022/01/02 04:11:45;;;;;;;7.43;2.97;;;;;;;10.28;100.00;116284.22;5047988;28;20025;-68
2022/01/02 04:14:10;;;;;;;5.80;2.97;;;;;;;10.33;100.00;115957.25;5053458;28;20227;-68
2022/01/02 04:16:35;;;;;;;14.17;3.73;;;;;;;10.30;100.00;115950.19;5055558;28;20242;-68
2022/01/02 04:19:01;;;;;;;8.50;3.40;;;;;;;10.29;100.00;116285.25;5051794;28;20517;-68
2022/01/02 04:21:26;;;;;;;8.60;3.40;;;;;;;10.27;100.00;117625.63;5051154;28;20025;-68
2022/01/02 04:23:54;;;;;;;7.37;2.90;;;;;;;10.40;100.00;117988.34;5056767;28;20495;-68
2022/01/02 04:26:20;;;;;;;8.73;3.30;;;;;;;10.43;100.00;116984.75;5048413;28;20425;-68
2022/01/02 04:28:49;;;;;;;10.77;2.80;;;;;;;10.46;100.00;116654.59;5056804;28;20039;-68
2022/01/02 04:31:15;;;;;;;8.73;3.77;;;;;;;10.42;100.00;116647.56;5047543;28;20028;-68
2022/01/02 04:33:40;;;;;;;10.23;3.13;;;;;;;10.59;100.00;114663.88;5041300;28;20603;-68
2022/01/02 04:36:06;;;;;;;10.30;3.73;;;;;;;10.56;100.00;112642.28;5045892;28;20025;-68
2022/01/02 04:38:36;;;;;;;8.00;3.10;;;;;;;10.57;100.00;112981.06;5045014;28;20429;-68
2022/01/02 04:41:02;;;;;;;12.73;3.03;;;;;;;10.68;100.00;111993.88;5057334;28;20140;-68
2022/01/02 04:43:28;;;;;;;6.70;2.70;;;;;;;10.66;100.00;110981.63;5054615;28;20182;-68
2022/01/02 04:45:53;;;;;;;7.80;2.73;;;;;;;10.72;100.00;110657.41;5057019;28;20029;-68
2022/01/02 04:48:18;;;;;;;8.70;2.87;;;;;;;10.82;100.00;109334.56;5051710;28;20082;-68
2022/01/02 04:50:44;;;;;;;7.87;2.43;;;;;;;10.79;100.00;106979.16;5050573;28;20028;-68
2022/01/02 04:53:09;;;;;;;11.17;3.10;;;;;;;10.78;100.00;107313.66;5047155;28;20024;-68
2022/01/02 04:55:35;;;;;;;7.47;2.47;;;;;;;10.77;100.00;109995.50;5056906;28;20126;-68
2022/01/02 04:58:01;;;;;;;6.67;2.43;;;;;;;10.89;100.00;109681.63;5055657;28;20055;-68
2022/01/02 05:00:26;;;;;;;6.63;2.43;;;;;;;10.86;100.00;110012.63;5055533;28;20642;-68
2022/01/02 05:02:52;;;;;;;8.27;2.90;;;;;;;11.06;100.00;108707.47;5050344;28;20052;-68
2022/01/02 05:05:23;;;;;;;9.80;2.57;;;;;;;11.09;100.00;106363.53;5055811;28;20186;-68
2022/01/02 05:07:51;;;;;;;8.50;2.70;;;;;;;11.29;100.00;104385.22;5051438;28;20086;-68
2022/01/02 05:10:16;;;;;;;9.63;2.90;;;;;;;11.34;100.00;98695.75;5047120;28;20024;-68
2022/01/02 05:12:42;;;;;;;6.00;2.50;;;;;;;11.41;100.00;92684.28;5053912;28;20020;-69
2022/01/02 05:15:08;;;;;;;6.37;1.67;;;;;;;11.53;100.00;88691.59;5045561;28;20009;-68
2022/01/02 05:17:33;;;;;;;8.27;1.93;;;;;;;11.56;100.00;81687.47;5056435;28;20040;-68
2022/01/02 05:19:59;;;;;;;6.63;2.07;;;;;;;11.59;100.00;77026.94;5049865;28;20104;-68
2022/01/02 05:22:24;;;;;;;6.63;2.07;;;;;;;11.61;100.00;73368.72;5048531;28;20057;-68
2022/01/02 05:24:49;;;;;;;7.93;3.03;;;;;;;11.66;100.00;68056.72;5055792;28;20714;-68
2022/01/02 05:27:15;;;;;;;7.07;2.27;;;;;;;11.65;100.00;63739.94;5053468;28;20356;-68
2022/01/02 05:29:40;;;;;;;5.87;2.17;;;;;;;11.61;100.00;63736.00;5049964;28;20020;-69
2022/01/02 05:32:06;;;;;;;11.83;3.10;;;;;;;11.55;100.00;64392.69;5050041;28;20025;-69
2022/01/02 05:34:31;;;;;;;9.33;3.17;;;;;;;11.56;100.00;66384.78;5052483;28;20425;-69
2022/01/02 05:36:57;;;;;;;7.17;2.13;;;;;;;11.61;100.00;66058.66;5045549;28;20035;-69
2022/01/02 05:39:23;;;;;;;8.93;2.67;;;;;;;11.65;100.00;63408.25;5056300;28;20507;-69
2022/01/02 05:41:50;;;;;;;10.83;2.40;;;;;;;11.67;100.00;60758.50;5057273;28;20031;-69
2022/01/02 05:44:16;;;;;;;8.13;1.83;;;;;;;11.76;100.00;54143.91;5052944;28;20516;-69
2022/01/02 05:46:42;;;;;;;4.33;1.50;;;;;;;11.76;100.00;51829.31;5050526;28;20024;-69
2022/01/02 05:49:10;;;;;;;7.80;1.80;;;;;;;11.74;100.00;50174.84;5051507;28;20032;-69
2022/01/02 05:51:36;;;;;;;7.13;1.63;;;;;;;11.83;100.00;49191.13;5055299;28;20032;-68
2022/01/02 05:54:02;;;;;;;6.90;2.30;;;;;;;11.80;100.00;44896.41;5046919;28;20191;-68
2022/01/02 05:56:27;;;;;;;8.70;2.87;;;;;;;11.72;100.00;49512.72;5052649;28;20021;-68
2022/01/02 05:58:53;;;;;;;6.10;2.03;;;;;;;11.74;100.00;57121.69;5051029;28;20044;-68
2022/01/02 06:01:21;;;;;;;11.87;2.40;;;;;;;11.81;100.00;54148.69;5049982;28;20452;-68
2022/01/02 06:03:46;;;;;;;7.33;2.33;;;;;;;11.71;100.00;61093.72;5053829;28;20052;-68
2022/01/02 06:06:12;;;;;;;7.40;2.37;;;;;;;11.70;100.00;64409.66;5054234;28;20085;-68
2022/01/02 06:08:38;;;;;;;5.60;1.93;;;;;;;11.77;100.00;63752.81;5050436;28;20039;-68
2022/01/02 06:11:03;;;;;;;9.83;2.20;;;;;;;11.73;100.00;64081.22;5048149;28;20543;-68
2022/01/02 06:13:29;;;;;;;8.53;1.93;;;;;;;11.68;100.00;69720.28;5048841;28;20082;-68
2022/01/02 06:15:54;;;;;;;4.03;1.70;;;;;;;11.72;100.00;72717.50;5054948;28;20488;-68
2022/01/02 06:18:20;;;;;;;12.63;2.10;;;;;;;11.70;100.00;75709.16;5049015;28;20059;-68
2022/01/02 06:20:45;;;;;;;5.33;1.70;;;;;;;11.72;100.00;82376.56;5053475;28;20039;-68
2022/01/02 06:23:11;;;;;;;8.03;2.23;;;;;;;11.68;100.00;85374.75;5055805;28;20017;-68
2022/01/02 06:25:37;;;;;;;6.23;1.63;;;;;;;11.66;100.00;91720.22;5049375;28;20385;-68
2022/01/02 06:28:02;;;;;;;9.47;2.30;;;;;;;11.58;100.00;97731.72;5051809;28;20357;-68
2022/01/02 06:30:32;;;;;;;11.33;1.87;;;;;;;11.54;100.00;103759.28;5051952;28;20133;-68
2022/01/02 06:32:57;;;;;;;9.93;2.27;;;;;;;11.50;100.00;109459.41;5052729;28;20525;-68
2022/01/02 06:35:27;;;;;;;8.97;2.67;;;;;;;11.49;100.00;113493.38;5050729;28;20081;-68
2022/01/02 06:37:53;;;;;;;8.43;2.53;;;;;;;11.46;100.00;116179.91;5044575;28;20262;-68
2022/01/02 06:40:20;;;;;;;7.17;2.43;;;;;;;11.40;100.00;117851.50;5046591;28;20059;-68
2022/01/02 06:42:46;;;;;;;8.13;2.20;;;;;;;11.48;100.00;116856.34;5055232;28;20412;-68
2022/01/02 06:45:12;;;;;;;6.30;2.50;;;;;;;11.43;100.00;117184.03;5049928;28;20164;-68
2022/01/02 06:47:37;;;;;;;8.80;2.57;;;;;;;11.40;100.00;117177.97;5050936;28;20024;-68
2022/01/02 06:50:04;;;;;;;9.20;2.60;;;;;;;11.58;100.00;114184.09;5046496;28;20031;-68
2022/01/02 06:52:29;;;;;;;7.30;2.90;;;;;;;11.71;100.00;103789.78;5055072;28;21484;-68
2022/01/02 06:54:55;;;;;;;5.60;1.90;;;;;;;11.68;100.00;96408.81;5047148;28;20020;-68
2022/01/02 06:57:21;;;;;;;5.43;2.60;;;;;;;11.59;100.00;93046.91;5055403;28;20020;-70
2022/01/02 06:59:47;;;;;;;7.33;2.43;;;;;;;11.60;100.00;93717.66;5055026;28;20110;-69
2022/01/02 07:02:13;;;;;;;5.43;2.17;;;;;;;11.60;100.00;92045.06;5052765;28;20044;-68
2022/01/02 07:04:38;;;;;;;8.87;2.20;;;;;;;11.65;100.00;92386.75;5058660;28;20534;-70
2022/01/02 07:07:04;;;;;;;9.43;2.30;;;;;;;11.56;100.00;93376.59;5054777;28;20432;-70
2022/01/02 07:09:31;;;;;;;9.30;2.40;;;;;;;11.56;100.00;95049.69;5054527;28;20752;-69
2022/01/02 07:11:57;;;;;;;6.47;2.00;;;;;;;11.51;100.00;97719.03;5051867;28;20087;-69
2022/01/02 07:14:26;;;;;;;11.97;2.23;;;;;;;11.55;100.00;97726.66;5054533;28;20425;-69
2022/01/02 07:16:52;;;;;;;12.17;3.10;;;;;;;11.41;100.00;102729.72;5058456;28;20028;-68
2022/01/02 07:19:17;;;;;;;12.00;2.80;;;;;;;11.39;100.00;107760.94;5056711;28;20157;-69
2022/01/02 07:21:43;;;;;;;9.47;3.27;;;;;;;11.46;100.00;109452.78;5056556;28;20590;-69
2022/01/02 07:24:08;;;;;;;7.10;2.40;;;;;;;11.40;100.00;110785.72;5056230;28;20035;-69
2022/01/02 07:26:34;;;;;;;7.43;2.87;;;;;;;11.42;100.00;113479.69;5056369;28;20181;-68
2022/01/02 07:28:59;;;;;;;9.27;2.97;;;;;;;11.42;100.00;112806.94;5055663;28;20032;-69
2022/01/02 07:31:24;;;;;;;10.77;3.17;;;;;;;11.35;100.00;114476.13;5059538;28;20392;-68
2022/01/02 07:33:50;;;;;;;8.07;2.43;;;;;;;11.33;100.00;117500.50;5056799;28;20036;-68
2022/01/02 07:36:15;;;;;;;8.23;2.60;;;;;;;11.28;100.00;119848.09;5054692;28;20032;-68
2022/01/02 07:38:40;;;;;;;11.70;3.37;;;;;;;11.35;100.00;120536.56;5052881;28;20031;-68
2022/01/02 07:41:06;;;;;;;9.90;3.80;;;;;;;11.44;100.00;119545.22;5053133;28;20119;-68
2022/01/02 07:43:31;;;;;;;11.47;3.00;;;;;;;11.42;100.00;117182.00;5055000;28;20658;-68
2022/01/02 07:45:57;;;;;;;7.03;2.63;;;;;;;11.41;100.00;115497.66;5055122;28;20074;-69
2022/01/02 07:48:22;;;;;;;11.67;3.13;;;;;;;11.57;100.00;114182.13;5059062;28;20082;-69
2022/01/02 07:50:47;;;;;;;8.90;2.30;;;;;;;11.72;100.00;103119.47;5052785;28;20409;-68
2022/01/02 07:53:15;;;;;;;9.43;2.43;;;;;;;11.71;100.00;88385.13;5055565;28;20469;-68
2022/01/02 07:55:43;;;;;;;15.10;2.93;;;;;;;11.66;100.00;81034.81;5055628;28;20021;-68
2022/01/02 07:58:09;;;;;;;6.30;2.30;;;;;;;11.74;100.00;73052.69;5053182;28;20512;-69
2022/01/02 08:00:37;;;;;;;8.47;2.50;;;;;;;11.71;100.00;64078.97;5051211;28;20025;-69
2022/01/02 08:03:02;;;;;;;7.73;3.03;;;;;;;11.72;100.00;61426.84;5053606;28;20040;-68
2022/01/02 08:05:27;;;;;;;8.47;2.50;;;;;;;11.66;100.00;61751.88;5058823;28;20081;-69
2022/01/02 08:07:55;;;;;;;7.57;2.67;;;;;;;11.69;100.00;55130.22;5052224;28;20107;-69
2022/01/02 08:10:20;;;;;;;7.10;2.47;;;;;;;11.69;100.00;53145.88;5045650;28;20021;-69
2022/01/02 08:12:46;;;;;;;8.20;2.47;;;;;;;11.76;100.00;48524.38;5056057;28;20266;-69
2022/01/02 08:15:11;;;;;;;10.33;3.07;;;;;;;11.70;100.00;50502.19;5056828;28;20028;-69
2022/01/02 08:17:39;;;;;;;14.10;2.67;;;;;;;11.68;100.00;47857.47;5057093;28;20058;-67
2022/01/02 08:20:05;;;;;;;8.23;2.10;;;;;;;11.80;100.00;38962.84;5059230;28;20040;-68
2022/01/02 08:22:30;;;;;;;6.60;1.97;;;;;;;11.83;100.00;22863.66;5049848;28;20024;-68
2022/01/02 08:24:56;;;;;;;10.60;3.30;;;;;;;11.86;100.00;8145.59;5053637;28;20118;-68
2022/01/02 08:27:21;;;;;;;8.37;2.40;;;;;;;11.89;100.00;-3.25;5057258;28;20191;-68
2022/01/02 08:29:47;;;;;;;9.17;2.20;;;;;;;11.84;100.00;-1630.88;5061064;28;20024;-68
2022/01/02 08:32:15;;;;;;;4.67;1.80;;;;;;;11.84;100.00;-2281.56;5054393;28;20094;-70
2022/01/02 08:34:40;;;;;;;5.53;1.87;;;;;;;11.80;100.00;647.34;5049161;28;20046;-68
2022/01/02 08:37:06;;;;;;;10.07;2.20;;;;;;;11.90;100.00;-6183.34;5050424;28;20037;-68
2022/01/02 08:39:31;;;;;;;9.80;2.17;;;;;;;11.94;100.00;-11379.16;5046384;28;20107;-68
2022/01/02 08:41:57;;;;;;;6.07;1.80;;;;;;;12.07;100.00;-19481.03;5054527;28;20241;-68
2022/01/02 08:44:24;;;;;;;6.83;1.70;;;;;;;11.94;100.00;-19477.59;5052754;28;20055;-68
2022/01/02 08:46:50;;;;;;;10.10;2.43;;;;;;;11.93;100.00;-19477.47;5050412;28;20020;-68
2022/01/02 08:49:17;;;;;;;4.93;1.83;;;;;;;11.90;100.00;-19476.56;5055707;28;20142;-70
2022/01/02 08:51:42;;;;;;;9.00;2.50;;;;;;;11.91;100.00;-19476.81;5052965;28;20373;-68
2022/01/02 08:54:08;;;;;;;6.53;2.00;;;;;;;11.85;100.00;-19475.25;5047048;28;20023;-68
2022/01/02 08:56:33;;;;;;;12.00;2.10;;;;;;;11.90;100.00;-19476.56;5049553;28;20028;-70
2022/01/02 08:58:58;;;;;;;10.50;2.83;;;;;;;11.81;100.00;-19474.19;5050561;28;20196;-70
2022/01/02 09:01:26;;;;;;;8.53;2.17;;;;;;;11.78;100.00;-10403.78;5052209;28;20090;-70
2022/01/02 09:03:52;;;;;;;7.50;2.17;;;;;;;11.85;100.00;-16344.41;5055157;28;20162;-68
2022/01/02 09:06:17;;;;;;;10.83;1.97;;;;;;;11.84;100.00;-18390.97;5054185;28;20016;-68
2022/01/02 09:08:43;;;;;;;8.87;1.90;;;;;;;11.86;100.00;-19475.50;5052134;28;20492;-68
2022/01/02 09:11:08;;;;;;;5.50;2.23;;;;;;;11.87;100.00;-19475.91;5046297;28;20078;-69
2022/01/02 09:13:34;;;;;;;6.80;2.33;;;;;;;11.80;100.00;-19473.94;5050420;28;20032;-69
2022/01/02 09:15:59;;;;;;;8.93;2.63;;;;;;;11.76;100.00;-16415.91;5052519;28;20020;-69
2022/01/02 09:18:25;;;;;;;7.93;2.30;;;;;;;11.79;100.00;-12674.50;5051079;28;20173;-68
2022/01/02 09:20:53;;;;;;;6.33;2.47;;;;;;;11.82;100.00;-17348.38;5048476;28;20035;-68
2022/01/02 09:23:18;;;;;;;9.30;2.73;;;;;;;11.79;100.00;-17863.56;5048165;28;20349;-68
2022/01/02 09:25:44;;;;;;;8.67;2.27;;;;;;;11.77;100.00;-11052.56;5055783;28;20293;-68
2022/01/02 09:28:09;;;;;;;7.90;2.63;;;;;;;11.73;100.00;-5207.84;5055434;28;20069;-68
2022/01/02 09:30:35;;;;;;;8.10;2.43;;;;;;;11.79;100.00;-5857.97;5052121;28;20067;-68
2022/01/02 09:33:01;;;;;;;5.77;2.37;;;;;;;11.72;100.00;3252.31;5056194;28;20171;-68
2022/01/02 09:35:27;;;;;;;9.73;3.20;;;;;;;11.63;100.00;24166.22;5052438;28;20372;-68
2022/01/02 09:37:52;;;;;;;12.53;2.37;;;;;;;11.69;100.00;22202.38;5056390;28;20481;-68
2022/01/02 09:40:18;;;;;;;10.43;2.63;;;;;;;11.58;100.00;30726.44;5057401;28;20566;-68
2022/01/02 09:42:44;;;;;;;8.07;2.43;;;;;;;11.60;100.00;41583.91;5057764;28;20139;-68
2022/01/02 09:45:10;;;;;;;11.93;2.50;;;;;;;11.63;100.00;38621.97;5055458;28;20036;-69
2022/01/02 09:47:37;;;;;;;11.33;3.27;;;;;;;11.54;100.00;47515.88;5052161;28;20207;-68
2022/01/02 09:50:07;;;;;;;12.10;3.27;;;;;;;11.51;100.00;52467.81;5049039;28;20035;-68
2022/01/02 09:52:34;;;;;;;8.50;2.97;;;;;;;11.45;100.00;56430.63;5048367;28;20207;-68
2022/01/02 09:55:00;;;;;;;6.37;2.50;;;;;;;11.46;100.00;61398.75;5046094;28;20035;-68
2022/01/02 09:57:25;;;;;;;8.63;2.53;;;;;;;11.45;100.00;63718.13;5052324;28;20024;-68
2022/01/02 09:59:51;;;;;;;13.37;2.73;;;;;;;11.43;100.00;64048.06;5048805;28;20029;-68
2022/01/02 10:02:16;;;;;;;7.73;2.70;;;;;;;11.48;100.00;62395.25;5051543;28;20475;-68
2022/01/02 10:04:43;;;;;;;8.17;2.27;;;;;;;11.54;100.00;60744.06;5050895;28;20064;-68
2022/01/02 10:07:25;;;;;;;9.00;3.33;;;;;;;11.58;100.00;56774.06;5053292;28;20602;-69
2022/01/02 10:09:52;;;;;;;;;;;;;;;11.69;100.00;48518.75;5053426;28;20035;-69
2022/01/02 10:12:26;;;;;;;9.50;2.63;;;;;;;11.62;100.00;37633.66;5051967;28;20567;-69
2022/01/02 10:15:20;;;;;;;5.40;2.43;;;;;;;11.69;100.00;30732.38;5051276;28;20266;-69
2022/01/02 10:17:50;;;;;;;4.83;2.17;;;;;;;11.66;100.00;33688.69;5052794;28;20032;-69
2022/01/02 10:20:16;;;;;;;5.80;2.20;;;;;;;11.66;100.00;34675.19;5053230;28;20142;-69
2022/01/02 10:23:02;;;;;;;6.43;2.27;;;;;;;11.69;100.00;19582.06;5052994;28;20054;-69
2022/01/02 10:25:38;;;;;;;13.80;2.50;;;;;;;11.70;100.00;15982.84;5053090;28;20031;-69
2022/01/02 10:28:34;;;;;;;9.80;2.20;;;;;;;11.74;100.00;10428.31;5052647;28;20705;-69
2022/01/02 10:31:09;;;;;;;7.80;3.27;;;;;;;11.79;100.00;2601.38;5049100;28;20546;-69
2022/01/02 10:33:57;;;;;;;9.43;2.33;;;;;;;11.82;100.00;-5208.09;5052740;28;20596;-69
2022/01/02 10:36:30;;;;;;;5.23;1.83;;;;;;;11.83;100.00;-7482.53;5048087;28;20034;-69
2022/01/02 10:39:12;;;;;;;7.17;2.30;;;;;;;11.90;100.00;-18903.31;5052785;28;20265;-69
2022/01/02 10:41:45;;;;;;;6.10;2.08;;;;;;;11.97;100.00;-19478.38;5053455;28;20059;-69
2022/01/02 10:44:26;;;;;;;6.00;2.50;;;;;;;12.12;100.00;-19482.34;5052473;28;20033;-69
2022/01/02 10:47:07;;;;;;;8.70;2.10;;;;;;;12.42;100.00;-19489.94;5052611;28;20046;-69
2022/01/02 10:49:49;;;;;;;7.00;2.00;;;;;;;12.51;100.00;-19492.31;5053154;28;20447;-69
2022/01/02 10:52:19;;;;;;;3.57;1.77;;;;;;;12.45;100.00;-19490.88;5045836;28;20291;-69
2022/01/02 10:54:45;;;;;;;9.00;2.20;;;;;;;12.43;100.00;-19490.22;5048196;28;20039;-69
2022/01/02 10:57:12;;;;;;;6.27;1.80;;;;;;;12.41;100.00;-19489.69;5052938;28;20032;-69
2022/01/02 10:59:39;;;;;;;15.83;3.27;;;;;;;12.50;100.00;-19492.06;5051979;28;20029;-69
2022/01/02 11:02:05;;;;;;;9.30;1.77;;;;;;;12.59;100.00;-19494.41;5051828;28;20563;-69
2022/01/02 11:04:32;;;;;;;9.20;2.30;;;;;;;12.65;100.00;-19496.00;5051996;28;20029;-69
2022/01/02 11:07:03;;;;;;;5.70;2.30;;;;;;;12.57;100.00;-19494.03;5051782;28;20413;-69
2022/01/02 11:09:31;;;;;;;7.50;2.30;;;;;;;12.53;100.00;-19492.84;5049951;28;20199;-69
2022/01/02 11:11:56;;;;;;;9.63;2.20;;;;;;;12.46;100.00;-19491.00;5052074;28;20029;-69
2022/01/02 11:14:22;;;;;;;3.93;1.60;;;;;;;12.46;100.00;-19491.00;5051907;28;20267;-69
2022/01/02 11:16:48;;;;;;;6.90;2.00;;;;;;;12.47;100.00;-19491.25;5051806;28;20534;-69
2022/01/02 11:19:14;;;;;;;6.07;2.17;;;;;;;12.50;100.00;-19492.06;5051544;28;20496;-69
2022/01/02 11:21:45;;;;;;;5.73;1.83;;;;;;;12.55;100.00;-19493.38;5052558;28;20032;-69
2022/01/02 11:24:18;;;;;;;5.53;1.90;;;;;;;12.63;100.00;-19495.47;5046870;28;20557;-69
2022/01/02 11:26:59;;;;;;;7.20;2.50;;;;;;;12.82;100.00;-19500.31;5049201;28;20036;-69
2022/01/02 11:29:29;;;;;;;10.73;2.40;;;;;;;12.81;100.00;-19500.19;5051990;28;20024;-69